To NAV CANADA Home Page Login to a new session Search on AWWS site Feedback and Comments Disclaimer Vers la page française équivalente Tips FAQ What's new on the site To the Forecasts and Observations / NOTAM section To "File a Flight Plan" website Publications and other links Update of the User's profile FIC Telephone Numbers My Weather Data Folder Route Weather Data Regional Weather Data Local Weather Data To the Forecasts and Observations / NOTAM section
Request Generated 08/22/2017 at 03:35:06 UTC . Weather information available at that time is displayed.

METAR/TAF

If you find any discrepancies between the coded METAR/TAF and the plain language METAR/TAF please use the coded METAR/TAF. LWIS bulletins are not decoded in plain language.

TORONTO/LESTER B. PEARSON INTL/ON    

METAR CYYZ 220300Z 20006KT 15SM BKN250 25/19 A2999 RMK CI6 SLP154 DENSITY ALT 1800FT=
METAR
LOCATION
CYYZ - TORONTO/LESTER B. PEARSON INTL/ON
DATE - TIME
22 AUGUST 2017 - 0300 UTC
WIND
200 TRUE @ 6  KNOTS
VISIBILITY
15 STAT.  MILES
RUNWAY VISUAL RANGE
WEATHER
CLOUDINESS
BROKEN CLOUDS (5/8 - 7/8) 25000  FT
TEMP / DEWPOINT
25 C / 19 C
ALTIMETER
29.99 IN HG
RECENT WEATHER
WIND SHEAR

METAR CYYZ 220200Z 20008KT 15SM BKN250 26/19 A3000 RMK CI6 SLP158 DENSITY ALT 1900FT=
METAR
LOCATION
CYYZ - TORONTO/LESTER B. PEARSON INTL/ON
DATE - TIME
22 AUGUST 2017 - 0200 UTC
WIND
200 TRUE @ 8  KNOTS
VISIBILITY
15 STAT.  MILES
RUNWAY VISUAL RANGE
WEATHER
CLOUDINESS
BROKEN CLOUDS (5/8 - 7/8) 25000  FT
TEMP / DEWPOINT
26 C / 19 C
ALTIMETER
30.00 IN HG
RECENT WEATHER
WIND SHEAR

METAR CYYZ 220100Z 15004KT 15SM FEW140 BKN250 26/20 A3000 RMK AC2CI4 SLP159 DENSITY ALT 1900FT=
METAR
LOCATION
CYYZ - TORONTO/LESTER B. PEARSON INTL/ON
DATE - TIME
22 AUGUST 2017 - 0100 UTC
WIND
150 TRUE @ 4  KNOTS
VISIBILITY
15 STAT.  MILES
RUNWAY VISUAL RANGE
WEATHER
CLOUDINESS
FEW CLOUDS (1/8 - 2/8) 14000  FT
BROKEN CLOUDS (5/8 - 7/8) 25000  FT
TEMP / DEWPOINT
26 C / 20 C
ALTIMETER
30.00 IN HG
RECENT WEATHER
WIND SHEAR

TAF CYYZ 220240Z 2203/2306 22008KT P6SM BKN240 FM221000 19012KT 6SM BR SCT008 BKN012 BECMG 2211/2213 21010G20KT FM221500 22018G28KT 6SM -SHRA BR BKN015 OVC080 PROB30 2215/2220 VRB25G45KT 1SM +TSRA BR BKN008 OVC040CB FM222000 24015G25KT 6SM -SHRA BR BKN020 OVC060 FM222300 30020G30KT P6SM FEW020 BECMG 2303/2305 30010G20KT RMK NXT FCST BY 220600Z=
TAF
LOCATION

CYYZ - TORONTO/LESTER B. PEARSON INTL/ON
VALIDITY [UTC]
22 AUG - 0240 to
23 AUG - 0600
 
TIMES
[UTC]
WIND
[DEGREES TRUE]
VISIBILITY
[STAT. MILES]
WEATHER
CLOUDINESS
[FEET AGL]
 
22 AUG - 0300 to
22 AUG - 1000
220 @ 8 KNOTS
6+
NIL
24000 BROKEN
 
22 AUG - 1000 to
22 AUG - 1500
190 @ 12 KNOTS
6
MIST
800 SCATTERED
1200 BROKEN
BECOMING
22 AUG - 1100 to
22 AUG - 1300
210 @ 10 KNOTS
GUSTS 20 KNOTS
 
 
 
 
22 AUG - 1500 to
22 AUG - 2000
220 @ 18 KNOTS
GUSTS 28 KNOTS
6
LIGHT RAIN SHOWER
MIST
1500 BROKEN
8000 OVERCAST
30% PROBABILITY
22 AUG - 1500 to
22 AUG - 2000
VARIABLE @ 25 KNOTS
GUSTS 45 KNOTS
1
HEAVY THUNDERSTORM WITH RAIN
MIST
800 BROKEN
4000 OVERCAST WITH CUMULONIMBUS
 
22 AUG - 2000 to
22 AUG - 2300
240 @ 15 KNOTS
GUSTS 25 KNOTS
6
LIGHT RAIN SHOWER
MIST
2000 BROKEN
6000 OVERCAST
 
22 AUG - 2300 to
23 AUG - 0600
300 @ 20 KNOTS
GUSTS 30 KNOTS
6+
NIL
2000 FEW
BECOMING
23 AUG - 0300 to
23 AUG - 0500
300 @ 10 KNOTS
GUSTS 20 KNOTS
 
 
 
REMARKS
THE NEXT FORECAST WILL BE ISSUED BY 0600 UTC ON DAY 22


Your time UTC time
Weather data provided by Environment Canada and NAV CANADA